sensor_id;sensor_type;location;lat;lon;timestamp;P1;durP1;ratioP1;P2;durP2;ratioP2
41903;SDS011;27586;51.124;4.182;2023-03-29T00:00:43;3.35;;;2.30;;
41903;SDS011;27586;51.124;4.182;2023-03-29T00:03:09;4.80;;;2.50;;
41903;SDS011;27586;51.124;4.182;2023-03-29T00:05:37;4.03;;;2.60;;
41903;SDS011;27586;51.124;4.182;2023-03-29T00:08:05;3.58;;;2.40;;
41903;SDS011;27586;51.124;4.182;2023-03-29T00:10:32;2.60;;;2.40;;
41903;SDS011;27586;51.124;4.182;2023-03-29T00:12:59;3.63;;;2.58;;
41903;SDS011;27586;51.124;4.182;2023-03-29T00:15:25;4.18;;;2.30;;
41903;SDS011;27586;51.124;4.182;2023-03-29T00:17:51;5.15;;;2.67;;
41903;SDS011;27586;51.124;4.182;2023-03-29T00:20:17;3.22;;;2.38;;
41903;SDS011;27586;51.124;4.182;2023-03-29T00:22:43;3.95;;;2.50;;
41903;SDS011;27586;51.124;4.182;2023-03-29T00:25:11;5.07;;;2.70;;
41903;SDS011;27586;51.124;4.182;2023-03-29T00:27:37;3.05;;;2.70;;
41903;SDS011;27586;51.124;4.182;2023-03-29T00:30:04;4.55;;;2.58;;
41903;SDS011;27586;51.124;4.182;2023-03-29T00:32:31;4.00;;;2.58;;
41903;SDS011;27586;51.124;4.182;2023-03-29T00:34:57;3.45;;;2.83;;
41903;SDS011;27586;51.124;4.182;2023-03-29T00:37:25;4.70;;;2.70;;
41903;SDS011;27586;51.124;4.182;2023-03-29T00:39:54;4.60;;;2.75;;
41903;SDS011;27586;51.124;4.182;2023-03-29T00:42:21;4.50;;;2.88;;
41903;SDS011;27586;51.124;4.182;2023-03-29T00:47:57;2.60;;;2.40;;
41903;SDS011;27586;51.124;4.182;2023-03-29T00:50:30;4.10;;;2.90;;
41903;SDS011;27586;51.124;4.182;2023-03-29T00:53:08;4.22;;;2.85;;
41903;SDS011;27586;51.124;4.182;2023-03-29T00:55:40;3.13;;;2.83;;
41903;SDS011;27586;51.124;4.182;2023-03-29T01:01:13;4.60;;;2.65;;
41903;SDS011;27586;51.124;4.182;2023-03-29T01:03:48;5.80;;;2.70;;
41903;SDS011;27586;51.124;4.182;2023-03-29T01:06:18;5.28;;;3.00;;
41903;SDS011;27586;51.124;4.182;2023-03-29T01:08:48;4.50;;;3.03;;
41903;SDS011;27586;51.124;4.182;2023-03-29T01:11:19;3.67;;;3.05;;
41903;SDS011;27586;51.124;4.182;2023-03-29T01:13:50;4.53;;;2.85;;
41903;SDS011;27586;51.124;4.182;2023-03-29T01:16:24;3.95;;;2.90;;
41903;SDS011;27586;51.124;4.182;2023-03-29T01:18:52;3.85;;;2.78;;
41903;SDS011;27586;51.124;4.182;2023-03-29T01:21:26;3.83;;;2.90;;
41903;SDS011;27586;51.124;4.182;2023-03-29T01:29:50;4.45;;;3.05;;
41903;SDS011;27586;51.124;4.182;2023-03-29T01:35:39;4.38;;;2.58;;
41903;SDS011;27586;51.124;4.182;2023-03-29T01:38:09;3.60;;;2.67;;
41903;SDS011;27586;51.124;4.182;2023-03-29T01:40:48;5.60;;;2.65;;
41903;SDS011;27586;51.124;4.182;2023-03-29T01:48:35;4.13;;;2.70;;
41903;SDS011;27586;51.124;4.182;2023-03-29T01:51:42;4.50;;;2.78;;
41903;SDS011;27586;51.124;4.182;2023-03-29T01:54:32;6.35;;;3.03;;
41903;SDS011;27586;51.124;4.182;2023-03-29T01:57:02;3.75;;;2.70;;
41903;SDS011;27586;51.124;4.182;2023-03-29T01:59:30;3.88;;;2.97;;
41903;SDS011;27586;51.124;4.182;2023-03-29T02:01:58;3.72;;;2.80;;
41903;SDS011;27586;51.124;4.182;2023-03-29T02:04:28;4.70;;;3.15;;
41903;SDS011;27586;51.124;4.182;2023-03-29T02:06:58;3.67;;;2.65;;
41903;SDS011;27586;51.124;4.182;2023-03-29T02:09:26;3.85;;;2.80;;
41903;SDS011;27586;51.124;4.182;2023-03-29T02:11:53;4.05;;;2.95;;
41903;SDS011;27586;51.124;4.182;2023-03-29T02:14:24;4.13;;;2.80;;
41903;SDS011;27586;51.124;4.182;2023-03-29T02:16:50;4.20;;;2.60;;
41903;SDS011;27586;51.124;4.182;2023-03-29T02:19:16;5.03;;;3.13;;
41903;SDS011;27586;51.124;4.182;2023-03-29T02:21:44;4.93;;;3.20;;
41903;SDS011;27586;51.124;4.182;2023-03-29T02:24:20;6.10;;;3.38;;
41903;SDS011;27586;51.124;4.182;2023-03-29T02:26:48;4.82;;;3.50;;
41903;SDS011;27586;51.124;4.182;2023-03-29T02:29:14;4.00;;;3.25;;
41903;SDS011;27586;51.124;4.182;2023-03-29T02:31:45;3.35;;;3.00;;
41903;SDS011;27586;51.124;4.182;2023-03-29T02:34:20;5.00;;;2.90;;
41903;SDS011;27586;51.124;4.182;2023-03-29T02:36:56;4.50;;;3.00;;
41903;SDS011;27586;51.124;4.182;2023-03-29T02:39:26;4.70;;;3.30;;
41903;SDS011;27586;51.124;4.182;2023-03-29T02:41:55;4.03;;;2.80;;
41903;SDS011;27586;51.124;4.182;2023-03-29T02:44:26;4.93;;;3.20;;
41903;SDS011;27586;51.124;4.182;2023-03-29T02:46:55;4.00;;;2.45;;
41903;SDS011;27586;51.124;4.182;2023-03-29T02:49:25;5.78;;;3.08;;
41903;SDS011;27586;51.124;4.182;2023-03-29T02:51:51;4.30;;;2.95;;
41903;SDS011;27586;51.124;4.182;2023-03-29T02:54:21;4.55;;;3.28;;
41903;SDS011;27586;51.124;4.182;2023-03-29T02:56:59;4.78;;;3.00;;
41903;SDS011;27586;51.124;4.182;2023-03-29T02:59:30;3.90;;;3.08;;
41903;SDS011;27586;51.124;4.182;2023-03-29T03:01:57;4.88;;;3.38;;
41903;SDS011;27586;51.124;4.182;2023-03-29T03:04:23;3.60;;;3.10;;
41903;SDS011;27586;51.124;4.182;2023-03-29T03:06:50;3.05;;;2.75;;
41903;SDS011;27586;51.124;4.182;2023-03-29T03:09:16;3.42;;;2.95;;
41903;SDS011;27586;51.124;4.182;2023-03-29T03:11:42;5.15;;;3.33;;
41903;SDS011;27586;51.124;4.182;2023-03-29T03:14:07;4.55;;;3.70;;
41903;SDS011;27586;51.124;4.182;2023-03-29T03:16:33;5.13;;;3.10;;
41903;SDS011;27586;51.124;4.182;2023-03-29T03:18:59;4.30;;;3.58;;
41903;SDS011;27586;51.124;4.182;2023-03-29T03:21:25;4.97;;;3.10;;
41903;SDS011;27586;51.124;4.182;2023-03-29T03:23:52;4.22;;;3.40;;
41903;SDS011;27586;51.124;4.182;2023-03-29T03:26:18;3.65;;;3.20;;
41903;SDS011;27586;51.124;4.182;2023-03-29T03:28:44;4.35;;;3.22;;
41903;SDS011;27586;51.124;4.182;2023-03-29T03:31:10;4.68;;;3.20;;
41903;SDS011;27586;51.124;4.182;2023-03-29T03:33:39;6.10;;;3.22;;
41903;SDS011;27586;51.124;4.182;2023-03-29T03:36:06;4.97;;;3.40;;
41903;SDS011;27586;51.124;4.182;2023-03-29T03:38:34;4.50;;;3.40;;
41903;SDS011;27586;51.124;4.182;2023-03-29T03:41:01;4.60;;;3.20;;
41903;SDS011;27586;51.124;4.182;2023-03-29T03:43:27;3.90;;;3.20;;
41903;SDS011;27586;51.124;4.182;2023-03-29T03:45:53;4.20;;;3.60;;
41903;SDS011;27586;51.124;4.182;2023-03-29T03:48:20;6.63;;;2.72;;
41903;SDS011;27586;51.124;4.182;2023-03-29T03:50:50;10.80;;;3.80;;
41903;SDS011;27586;51.124;4.182;2023-03-29T03:53:18;5.30;;;3.42;;
41903;SDS011;27586;51.124;4.182;2023-03-29T03:55:48;15.75;;;4.53;;
41903;SDS011;27586;51.124;4.182;2023-03-29T03:58:19;17.00;;;3.67;;
41903;SDS011;27586;51.124;4.182;2023-03-29T04:00:46;4.13;;;3.47;;
41903;SDS011;27586;51.124;4.182;2023-03-29T04:03:13;4.45;;;2.97;;
41903;SDS011;27586;51.124;4.182;2023-03-29T04:05:41;4.32;;;3.25;;
41903;SDS011;27586;51.124;4.182;2023-03-29T04:08:07;4.10;;;3.38;;
41903;SDS011;27586;51.124;4.182;2023-03-29T04:10:33;4.30;;;3.00;;
41903;SDS011;27586;51.124;4.182;2023-03-29T04:12:59;4.53;;;3.08;;
41903;SDS011;27586;51.124;4.182;2023-03-29T04:15:29;3.28;;;2.97;;
41903;SDS011;27586;51.124;4.182;2023-03-29T04:17:57;4.90;;;3.42;;
41903;SDS011;27586;51.124;4.182;2023-03-29T04:20:23;4.13;;;3.28;;
41903;SDS011;27586;51.124;4.182;2023-03-29T04:22:50;4.82;;;3.38;;
41903;SDS011;27586;51.124;4.182;2023-03-29T04:25:16;4.53;;;3.30;;
41903;SDS011;27586;51.124;4.182;2023-03-29T04:27:42;5.13;;;3.50;;
41903;SDS011;27586;51.124;4.182;2023-03-29T04:30:08;4.70;;;3.85;;
41903;SDS011;27586;51.124;4.182;2023-03-29T04:32:35;4.90;;;3.88;;
41903;SDS011;27586;51.124;4.182;2023-03-29T04:35:01;4.40;;;3.30;;
41903;SDS011;27586;51.124;4.182;2023-03-29T04:37:29;4.50;;;3.75;;
41903;SDS011;27586;51.124;4.182;2023-03-29T04:39:55;5.10;;;3.63;;
41903;SDS011;27586;51.124;4.182;2023-03-29T04:42:24;8.27;;;3.72;;
41903;SDS011;27586;51.124;4.182;2023-03-29T04:44:50;5.93;;;3.65;;
41903;SDS011;27586;51.124;4.182;2023-03-29T04:47:17;4.95;;;3.70;;
41903;SDS011;27586;51.124;4.182;2023-03-29T04:49:43;5.18;;;4.32;;
41903;SDS011;27586;51.124;4.182;2023-03-29T04:52:09;5.13;;;3.13;;
41903;SDS011;27586;51.124;4.182;2023-03-29T04:54:38;5.53;;;3.85;;
41903;SDS011;27586;51.124;4.182;2023-03-29T04:57:04;4.35;;;3.38;;
41903;SDS011;27586;51.124;4.182;2023-03-29T04:59:31;6.60;;;3.83;;
41903;SDS011;27586;51.124;4.182;2023-03-29T05:01:57;7.05;;;3.80;;
41903;SDS011;27586;51.124;4.182;2023-03-29T05:04:23;5.97;;;3.55;;
41903;SDS011;27586;51.124;4.182;2023-03-29T05:06:49;4.72;;;3.50;;
41903;SDS011;27586;51.124;4.182;2023-03-29T05:09:15;5.25;;;3.47;;
41903;SDS011;27586;51.124;4.182;2023-03-29T05:11:41;3.85;;;3.45;;
41903;SDS011;27586;51.124;4.182;2023-03-29T05:14:07;9.57;;;3.78;;
41903;SDS011;27586;51.124;4.182;2023-03-29T05:16:33;23.70;;;4.78;;
41903;SDS011;27586;51.124;4.182;2023-03-29T05:18:59;4.43;;;3.50;;
41903;SDS011;27586;51.124;4.182;2023-03-29T05:21:25;5.13;;;3.58;;
41903;SDS011;27586;51.124;4.182;2023-03-29T05:23:52;4.97;;;3.92;;
41903;SDS011;27586;51.124;4.182;2023-03-29T05:26:18;4.43;;;3.60;;
41903;SDS011;27586;51.124;4.182;2023-03-29T05:28:46;4.97;;;3.60;;
41903;SDS011;27586;51.124;4.182;2023-03-29T05:31:12;5.13;;;3.60;;
41903;SDS011;27586;51.124;4.182;2023-03-29T05:33:38;6.78;;;4.28;;
41903;SDS011;27586;51.124;4.182;2023-03-29T05:36:14;4.53;;;4.00;;
41903;SDS011;27586;51.124;4.182;2023-03-29T05:38:41;8.05;;;3.53;;
41903;SDS011;27586;51.124;4.182;2023-03-29T05:41:09;8.73;;;4.07;;
41903;SDS011;27586;51.124;4.182;2023-03-29T05:43:39;5.72;;;4.20;;
41903;SDS011;27586;51.124;4.182;2023-03-29T05:46:06;5.18;;;4.13;;
41903;SDS011;27586;51.124;4.182;2023-03-29T05:48:32;7.45;;;4.53;;
41903;SDS011;27586;51.124;4.182;2023-03-29T05:50:57;5.57;;;4.20;;
41903;SDS011;27586;51.124;4.182;2023-03-29T05:53:24;6.18;;;3.95;;
41903;SDS011;27586;51.124;4.182;2023-03-29T05:55:51;6.93;;;4.30;;
41903;SDS011;27586;51.124;4.182;2023-03-29T05:58:17;5.25;;;3.85;;
41903;SDS011;27586;51.124;4.182;2023-03-29T06:00:45;6.00;;;3.92;;
41903;SDS011;27586;51.124;4.182;2023-03-29T06:03:14;5.53;;;4.13;;
41903;SDS011;27586;51.124;4.182;2023-03-29T06:05:43;5.15;;;3.92;;
41903;SDS011;27586;51.124;4.182;2023-03-29T06:08:10;4.43;;;3.88;;
41903;SDS011;27586;51.124;4.182;2023-03-29T06:10:36;3.97;;;3.55;;
41903;SDS011;27586;51.124;4.182;2023-03-29T06:13:02;5.00;;;4.00;;
41903;SDS011;27586;51.124;4.182;2023-03-29T06:15:30;10.52;;;4.45;;
41903;SDS011;27586;51.124;4.182;2023-03-29T06:17:57;4.25;;;3.47;;
41903;SDS011;27586;51.124;4.182;2023-03-29T06:20:23;6.13;;;4.10;;
41903;SDS011;27586;51.124;4.182;2023-03-29T06:22:49;5.18;;;4.22;;
41903;SDS011;27586;51.124;4.182;2023-03-29T06:25:15;5.38;;;4.00;;
41903;SDS011;27586;51.124;4.182;2023-03-29T06:27:41;5.15;;;4.00;;
41903;SDS011;27586;51.124;4.182;2023-03-29T06:30:07;5.50;;;3.92;;
41903;SDS011;27586;51.124;4.182;2023-03-29T06:32:33;6.35;;;4.32;;
41903;SDS011;27586;51.124;4.182;2023-03-29T06:34:59;7.45;;;4.25;;
41903;SDS011;27586;51.124;4.182;2023-03-29T06:37:26;5.22;;;4.15;;
41903;SDS011;27586;51.124;4.182;2023-03-29T06:39:53;5.00;;;4.03;;
41903;SDS011;27586;51.124;4.182;2023-03-29T06:42:18;9.07;;;4.65;;
41903;SDS011;27586;51.124;4.182;2023-03-29T06:44:45;4.72;;;3.85;;
41903;SDS011;27586;51.124;4.182;2023-03-29T06:47:11;6.72;;;4.47;;
41903;SDS011;27586;51.124;4.182;2023-03-29T06:49:41;4.93;;;4.00;;
41903;SDS011;27586;51.124;4.182;2023-03-29T06:52:07;5.10;;;4.30;;
41903;SDS011;27586;51.124;4.182;2023-03-29T06:54:33;11.25;;;4.72;;
41903;SDS011;27586;51.124;4.182;2023-03-29T06:56:59;6.45;;;4.47;;
41903;SDS011;27586;51.124;4.182;2023-03-29T06:59:26;6.95;;;4.53;;
41903;SDS011;27586;51.124;4.182;2023-03-29T07:01:53;5.53;;;4.22;;
41903;SDS011;27586;51.124;4.182;2023-03-29T07:04:19;5.65;;;3.95;;
41903;SDS011;27586;51.124;4.182;2023-03-29T07:06:46;5.28;;;4.10;;
41903;SDS011;27586;51.124;4.182;2023-03-29T07:09:15;6.55;;;4.05;;
41903;SDS011;27586;51.124;4.182;2023-03-29T07:11:41;7.65;;;4.57;;
41903;SDS011;27586;51.124;4.182;2023-03-29T07:14:07;5.95;;;4.25;;
41903;SDS011;27586;51.124;4.182;2023-03-29T07:16:33;7.18;;;4.55;;
41903;SDS011;27586;51.124;4.182;2023-03-29T07:19:01;8.63;;;4.75;;
41903;SDS011;27586;51.124;4.182;2023-03-29T07:21:28;5.80;;;4.30;;
41903;SDS011;27586;51.124;4.182;2023-03-29T07:23:54;6.00;;;4.32;;
41903;SDS011;27586;51.124;4.182;2023-03-29T07:26:22;5.53;;;4.55;;
41903;SDS011;27586;51.124;4.182;2023-03-29T07:28:49;5.80;;;4.25;;
41903;SDS011;27586;51.124;4.182;2023-03-29T07:31:15;6.88;;;4.80;;
41903;SDS011;27586;51.124;4.182;2023-03-29T07:33:41;5.03;;;4.50;;
41903;SDS011;27586;51.124;4.182;2023-03-29T07:36:08;7.80;;;5.25;;
41903;SDS011;27586;51.124;4.182;2023-03-29T07:38:35;6.60;;;4.68;;
41903;SDS011;27586;51.124;4.182;2023-03-29T07:41:04;6.68;;;4.78;;
41903;SDS011;27586;51.124;4.182;2023-03-29T07:43:31;6.07;;;5.03;;
41903;SDS011;27586;51.124;4.182;2023-03-29T07:46:01;6.40;;;4.70;;
41903;SDS011;27586;51.124;4.182;2023-03-29T07:48:28;6.50;;;5.30;;
41903;SDS011;27586;51.124;4.182;2023-03-29T07:50:54;8.13;;;5.60;;
41903;SDS011;27586;51.124;4.182;2023-03-29T07:53:20;6.50;;;4.80;;
41903;SDS011;27586;51.124;4.182;2023-03-29T07:55:47;9.73;;;5.80;;
41903;SDS011;27586;51.124;4.182;2023-03-29T07:58:14;7.57;;;5.18;;
41903;SDS011;27586;51.124;4.182;2023-03-29T08:00:40;5.65;;;4.88;;
41903;SDS011;27586;51.124;4.182;2023-03-29T08:03:08;8.52;;;5.40;;
41903;SDS011;27586;51.124;4.182;2023-03-29T08:05:35;7.80;;;4.90;;
41903;SDS011;27586;51.124;4.182;2023-03-29T08:08:01;7.78;;;5.00;;
41903;SDS011;27586;51.124;4.182;2023-03-29T08:10:27;7.30;;;4.80;;
41903;SDS011;27586;51.124;4.182;2023-03-29T08:12:53;7.30;;;5.00;;
41903;SDS011;27586;51.124;4.182;2023-03-29T08:15:19;6.70;;;4.90;;
41903;SDS011;27586;51.124;4.182;2023-03-29T08:17:44;6.82;;;4.88;;
41903;SDS011;27586;51.124;4.182;2023-03-29T08:20:11;7.35;;;5.25;;
41903;SDS011;27586;51.124;4.182;2023-03-29T08:22:39;7.13;;;5.20;;
41903;SDS011;27586;51.124;4.182;2023-03-29T08:25:05;5.65;;;4.60;;
41903;SDS011;27586;51.124;4.182;2023-03-29T08:27:32;7.57;;;5.00;;
41903;SDS011;27586;51.124;4.182;2023-03-29T08:29:58;5.55;;;4.95;;
41903;SDS011;27586;51.124;4.182;2023-03-29T08:32:23;6.35;;;4.60;;
41903;SDS011;27586;51.124;4.182;2023-03-29T08:34:49;6.25;;;4.43;;
41903;SDS011;27586;51.124;4.182;2023-03-29T08:37:15;7.25;;;5.03;;
41903;SDS011;27586;51.124;4.182;2023-03-29T08:39:41;6.03;;;4.57;;
41903;SDS011;27586;51.124;4.182;2023-03-29T08:47:41;7.15;;;4.90;;
41903;SDS011;27586;51.124;4.182;2023-03-29T08:50:17;6.35;;;4.05;;
41903;SDS011;27586;51.124;4.182;2023-03-29T08:52:53;5.90;;;4.32;;
41903;SDS011;27586;51.124;4.182;2023-03-29T08:55:29;8.18;;;4.30;;
41903;SDS011;27586;51.124;4.182;2023-03-29T08:58:11;5.85;;;3.97;;
41903;SDS011;27586;51.124;4.182;2023-03-29T09:00:45;4.90;;;4.10;;
41903;SDS011;27586;51.124;4.182;2023-03-29T09:03:21;6.60;;;4.28;;
41903;SDS011;27586;51.124;4.182;2023-03-29T09:05:58;5.85;;;4.20;;
41903;SDS011;27586;51.124;4.182;2023-03-29T09:08:44;8.25;;;4.45;;
41903;SDS011;27586;51.124;4.182;2023-03-29T09:27:55;5.97;;;4.13;;
41903;SDS011;27586;51.124;4.182;2023-03-29T09:30:42;6.80;;;4.28;;
41903;SDS011;27586;51.124;4.182;2023-03-29T09:38:38;5.53;;;4.35;;
41903;SDS011;27586;51.124;4.182;2023-03-29T09:41:24;5.40;;;4.32;;
41903;SDS011;27586;51.124;4.182;2023-03-29T09:43:54;7.00;;;4.32;;
41903;SDS011;27586;51.124;4.182;2023-03-29T09:46:28;6.45;;;4.65;;
41903;SDS011;27586;51.124;4.182;2023-03-29T09:49:05;5.47;;;4.53;;
41903;SDS011;27586;51.124;4.182;2023-03-29T09:51:36;8.68;;;5.22;;
41903;SDS011;27586;51.124;4.182;2023-03-29T09:54:03;11.32;;;4.32;;
41903;SDS011;27586;51.124;4.182;2023-03-29T09:56:28;6.97;;;4.53;;
41903;SDS011;27586;51.124;4.182;2023-03-29T09:58:54;5.00;;;4.10;;
41903;SDS011;27586;51.124;4.182;2023-03-29T10:01:20;5.20;;;4.70;;
41903;SDS011;27586;51.124;4.182;2023-03-29T10:03:49;7.13;;;4.40;;
41903;SDS011;27586;51.124;4.182;2023-03-29T10:06:16;7.35;;;4.05;;
41903;SDS011;27586;51.124;4.182;2023-03-29T10:08:50;6.57;;;4.50;;
41903;SDS011;27586;51.124;4.182;2023-03-29T10:11:29;6.47;;;4.05;;
41903;SDS011;27586;51.124;4.182;2023-03-29T10:14:02;4.97;;;4.57;;
41903;SDS011;27586;51.124;4.182;2023-03-29T10:16:35;5.47;;;4.05;;
41903;SDS011;27586;51.124;4.182;2023-03-29T10:19:20;6.38;;;4.07;;
41903;SDS011;27586;51.124;4.182;2023-03-29T10:21:46;3.78;;;3.25;;
41903;SDS011;27586;51.124;4.182;2023-03-29T10:24:17;4.85;;;4.03;;
41903;SDS011;27586;51.124;4.182;2023-03-29T10:26:44;5.78;;;4.43;;
41903;SDS011;27586;51.124;4.182;2023-03-29T10:29:11;4.40;;;3.90;;
41903;SDS011;27586;51.124;4.182;2023-03-29T10:31:37;6.68;;;4.10;;
41903;SDS011;27586;51.124;4.182;2023-03-29T10:34:06;4.32;;;3.92;;
41903;SDS011;27586;51.124;4.182;2023-03-29T10:36:38;5.32;;;3.85;;
41903;SDS011;27586;51.124;4.182;2023-03-29T10:39:06;8.13;;;4.50;;
41903;SDS011;27586;51.124;4.182;2023-03-29T10:41:34;5.47;;;3.95;;
41903;SDS011;27586;51.124;4.182;2023-03-29T10:44:00;4.53;;;3.90;;
41903;SDS011;27586;51.124;4.182;2023-03-29T10:49:01;6.28;;;4.40;;
41903;SDS011;27586;51.124;4.182;2023-03-29T10:51:34;12.20;;;4.28;;
41903;SDS011;27586;51.124;4.182;2023-03-29T10:54:00;6.40;;;3.88;;
41903;SDS011;27586;51.124;4.182;2023-03-29T11:12:42;4.65;;;3.33;;
41903;SDS011;27586;51.124;4.182;2023-03-29T11:15:39;4.68;;;3.30;;
41903;SDS011;27586;51.124;4.182;2023-03-29T11:18:35;5.40;;;3.00;;
41903;SDS011;27586;51.124;4.182;2023-03-29T11:23:59;3.25;;;2.75;;
41903;SDS011;27586;51.124;4.182;2023-03-29T11:29:27;3.22;;;2.67;;
41903;SDS011;27586;51.124;4.182;2023-03-29T11:34:48;3.85;;;2.70;;
41903;SDS011;27586;51.124;4.182;2023-03-29T11:43:01;3.92;;;2.80;;
41903;SDS011;27586;51.124;4.182;2023-03-29T11:45:37;3.45;;;2.55;;
41903;SDS011;27586;51.124;4.182;2023-03-29T11:48:09;5.50;;;2.80;;
41903;SDS011;27586;51.124;4.182;2023-03-29T11:50:43;3.03;;;2.20;;
41903;SDS011;27586;51.124;4.182;2023-03-29T11:53:21;3.05;;;2.50;;
41903;SDS011;27586;51.124;4.182;2023-03-29T11:56:13;2.90;;;2.15;;
41903;SDS011;27586;51.124;4.182;2023-03-29T11:58:45;3.03;;;2.28;;
41903;SDS011;27586;51.124;4.182;2023-03-29T12:01:19;2.53;;;2.33;;
41903;SDS011;27586;51.124;4.182;2023-03-29T12:03:52;2.67;;;2.00;;
41903;SDS011;27586;51.124;4.182;2023-03-29T12:06:24;4.55;;;2.13;;
41903;SDS011;27586;51.124;4.182;2023-03-29T12:09:11;3.63;;;2.20;;
41903;SDS011;27586;51.124;4.182;2023-03-29T12:11:58;3.55;;;1.83;;
41903;SDS011;27586;51.124;4.182;2023-03-29T12:17:44;2.30;;;1.67;;
41903;SDS011;27586;51.124;4.182;2023-03-29T12:20:37;1.95;;;1.83;;
41903;SDS011;27586;51.124;4.182;2023-03-29T12:23:05;2.15;;;1.95;;
41903;SDS011;27586;51.124;4.182;2023-03-29T12:30:55;2.92;;;2.10;;
41903;SDS011;27586;51.124;4.182;2023-03-29T12:38:42;4.00;;;1.60;;
41903;SDS011;27586;51.124;4.182;2023-03-29T12:41:12;3.78;;;1.52;;
41903;SDS011;27586;51.124;4.182;2023-03-29T12:43:43;3.45;;;1.73;;
41903;SDS011;27586;51.124;4.182;2023-03-29T12:46:13;3.38;;;2.10;;
41903;SDS011;27586;51.124;4.182;2023-03-29T12:48:43;3.90;;;1.80;;
41903;SDS011;27586;51.124;4.182;2023-03-29T12:51:16;2.65;;;2.30;;
41903;SDS011;27586;51.124;4.182;2023-03-29T12:53:46;3.38;;;2.50;;
41903;SDS011;27586;51.124;4.182;2023-03-29T12:56:15;3.65;;;2.20;;
41903;SDS011;27586;51.124;4.182;2023-03-29T12:58:54;4.15;;;2.58;;
41903;SDS011;27586;51.124;4.182;2023-03-29T13:01:38;3.10;;;2.20;;
41903;SDS011;27586;51.124;4.182;2023-03-29T13:04:13;4.90;;;2.22;;
41903;SDS011;27586;51.124;4.182;2023-03-29T13:11:52;2.10;;;1.88;;
41903;SDS011;27586;51.124;4.182;2023-03-29T13:14:20;1.98;;;1.55;;
41903;SDS011;27586;51.124;4.182;2023-03-29T13:16:49;2.53;;;1.50;;
41903;SDS011;27586;51.124;4.182;2023-03-29T13:19:33;2.80;;;1.80;;
41903;SDS011;27586;51.124;4.182;2023-03-29T13:27:52;2.90;;;1.90;;
41903;SDS011;27586;51.124;4.182;2023-03-29T13:38:31;4.20;;;2.33;;
41903;SDS011;27586;51.124;4.182;2023-03-29T13:44:04;2.97;;;2.10;;
41903;SDS011;27586;51.124;4.182;2023-03-29T13:49:28;2.42;;;2.00;;
41903;SDS011;27586;51.124;4.182;2023-03-29T13:57:38;3.55;;;1.77;;
41903;SDS011;27586;51.124;4.182;2023-03-29T14:00:15;6.32;;;1.95;;
41903;SDS011;27586;51.124;4.182;2023-03-29T14:02:47;4.43;;;2.10;;
41903;SDS011;27586;51.124;4.182;2023-03-29T14:05:16;2.35;;;1.83;;
41903;SDS011;27586;51.124;4.182;2023-03-29T14:07:47;3.30;;;2.22;;
41903;SDS011;27586;51.124;4.182;2023-03-29T14:10:17;3.03;;;2.22;;
41903;SDS011;27586;51.124;4.182;2023-03-29T14:12:45;3.03;;;2.20;;
41903;SDS011;27586;51.124;4.182;2023-03-29T14:15:45;3.08;;;1.90;;
41903;SDS011;27586;51.124;4.182;2023-03-29T14:18:14;2.58;;;1.90;;
41903;SDS011;27586;51.124;4.182;2023-03-29T14:20:46;3.72;;;2.28;;
41903;SDS011;27586;51.124;4.182;2023-03-29T14:23:15;2.88;;;2.22;;
41903;SDS011;27586;51.124;4.182;2023-03-29T14:25:44;2.63;;;1.90;;
41903;SDS011;27586;51.124;4.182;2023-03-29T14:28:23;2.97;;;2.33;;
41903;SDS011;27586;51.124;4.182;2023-03-29T14:30:50;3.55;;;2.17;;
41903;SDS011;27586;51.124;4.182;2023-03-29T14:33:29;4.18;;;2.60;;
41903;SDS011;27586;51.124;4.182;2023-03-29T14:35:59;6.53;;;2.75;;
41903;SDS011;27586;51.124;4.182;2023-03-29T14:38:27;5.25;;;2.90;;
41903;SDS011;27586;51.124;4.182;2023-03-29T14:40:57;4.45;;;2.70;;
41903;SDS011;27586;51.124;4.182;2023-03-29T14:43:24;4.07;;;2.88;;
41903;SDS011;27586;51.124;4.182;2023-03-29T14:45:54;3.50;;;2.58;;
41903;SDS011;27586;51.124;4.182;2023-03-29T14:48:21;3.85;;;2.53;;
41903;SDS011;27586;51.124;4.182;2023-03-29T14:50:48;3.38;;;2.70;;
41903;SDS011;27586;51.124;4.182;2023-03-29T14:53:16;4.50;;;2.90;;
41903;SDS011;27586;51.124;4.182;2023-03-29T14:55:44;3.75;;;2.85;;
41903;SDS011;27586;51.124;4.182;2023-03-29T14:58:16;2.60;;;2.40;;
41903;SDS011;27586;51.124;4.182;2023-03-29T15:00:49;4.18;;;2.50;;
41903;SDS011;27586;51.124;4.182;2023-03-29T15:03:16;2.97;;;2.60;;
41903;SDS011;27586;51.124;4.182;2023-03-29T15:05:47;4.55;;;2.80;;
41903;SDS011;27586;51.124;4.182;2023-03-29T15:08:17;3.90;;;2.67;;
41903;SDS011;27586;51.124;4.182;2023-03-29T15:10:51;4.75;;;2.75;;
41903;SDS011;27586;51.124;4.182;2023-03-29T15:13:18;3.80;;;2.47;;
41903;SDS011;27586;51.124;4.182;2023-03-29T15:15:49;3.35;;;2.53;;
41903;SDS011;27586;51.124;4.182;2023-03-29T15:18:31;3.40;;;2.67;;
41903;SDS011;27586;51.124;4.182;2023-03-29T15:21:00;5.57;;;3.45;;
41903;SDS011;27586;51.124;4.182;2023-03-29T15:23:32;3.95;;;3.10;;
41903;SDS011;27586;51.124;4.182;2023-03-29T15:28:46;3.03;;;2.78;;
41903;SDS011;27586;51.124;4.182;2023-03-29T15:31:31;17.70;;;4.80;;
41903;SDS011;27586;51.124;4.182;2023-03-29T15:34:03;3.38;;;2.65;;
41903;SDS011;27586;51.124;4.182;2023-03-29T15:36:29;4.90;;;2.88;;
41903;SDS011;27586;51.124;4.182;2023-03-29T15:38:56;3.40;;;2.25;;
41903;SDS011;27586;51.124;4.182;2023-03-29T15:41:22;3.88;;;2.80;;
41903;SDS011;27586;51.124;4.182;2023-03-29T15:43:48;3.22;;;2.53;;
41903;SDS011;27586;51.124;4.182;2023-03-29T15:46:14;5.03;;;2.92;;
41903;SDS011;27586;51.124;4.182;2023-03-29T15:48:40;5.68;;;3.17;;
41903;SDS011;27586;51.124;4.182;2023-03-29T15:51:08;6.45;;;2.90;;
41903;SDS011;27586;51.124;4.182;2023-03-29T15:53:35;4.95;;;2.50;;
41903;SDS011;27586;51.124;4.182;2023-03-29T15:56:01;3.28;;;2.70;;
41903;SDS011;27586;51.124;4.182;2023-03-29T15:58:31;7.43;;;3.00;;
41903;SDS011;27586;51.124;4.182;2023-03-29T16:01:01;4.57;;;3.03;;
41903;SDS011;27586;51.124;4.182;2023-03-29T16:03:47;4.88;;;3.05;;
41903;SDS011;27586;51.124;4.182;2023-03-29T16:06:14;7.72;;;3.72;;
41903;SDS011;27586;51.124;4.182;2023-03-29T16:08:41;10.38;;;4.03;;
41903;SDS011;27586;51.124;4.182;2023-03-29T16:11:07;4.93;;;3.22;;
41903;SDS011;27586;51.124;4.182;2023-03-29T16:13:33;5.22;;;3.17;;
41903;SDS011;27586;51.124;4.182;2023-03-29T16:15:59;9.73;;;4.07;;
41903;SDS011;27586;51.124;4.182;2023-03-29T16:18:25;7.60;;;3.85;;
41903;SDS011;27586;51.124;4.182;2023-03-29T16:20:51;5.18;;;3.30;;
41903;SDS011;27586;51.124;4.182;2023-03-29T16:23:16;5.88;;;3.28;;
41903;SDS011;27586;51.124;4.182;2023-03-29T16:25:42;4.35;;;3.35;;
41903;SDS011;27586;51.124;4.182;2023-03-29T16:28:08;5.88;;;3.67;;
41903;SDS011;27586;51.124;4.182;2023-03-29T16:30:34;6.40;;;3.40;;
41903;SDS011;27586;51.124;4.182;2023-03-29T16:33:01;5.55;;;3.60;;
41903;SDS011;27586;51.124;4.182;2023-03-29T16:35:33;6.30;;;3.60;;
41903;SDS011;27586;51.124;4.182;2023-03-29T16:38:01;7.38;;;3.70;;
41903;SDS011;27586;51.124;4.182;2023-03-29T16:40:27;4.82;;;3.25;;
41903;SDS011;27586;51.124;4.182;2023-03-29T16:42:53;7.05;;;3.08;;
41903;SDS011;27586;51.124;4.182;2023-03-29T16:45:19;7.88;;;3.95;;
41903;SDS011;27586;51.124;4.182;2023-03-29T16:47:45;6.15;;;3.67;;
41903;SDS011;27586;51.124;4.182;2023-03-29T16:50:11;5.70;;;3.30;;
41903;SDS011;27586;51.124;4.182;2023-03-29T16:52:39;5.55;;;3.80;;
41903;SDS011;27586;51.124;4.182;2023-03-29T16:55:05;5.90;;;3.50;;
41903;SDS011;27586;51.124;4.182;2023-03-29T16:57:32;5.72;;;3.88;;
41903;SDS011;27586;51.124;4.182;2023-03-29T16:59:58;6.78;;;3.92;;
41903;SDS011;27586;51.124;4.182;2023-03-29T17:02:25;4.70;;;3.80;;
41903;SDS011;27586;51.124;4.182;2023-03-29T17:04:50;6.82;;;3.97;;
41903;SDS011;27586;51.124;4.182;2023-03-29T17:07:16;6.13;;;4.15;;
41903;SDS011;27586;51.124;4.182;2023-03-29T17:09:42;6.57;;;4.30;;